Time;durP1;ratioP1;P1;durP2;ratioP2;P2;SDS_P1;SDS_P2;PMS_P1;PMS_P2;Temp;Humidity;BMP_temperature;BMP_pressure;BME280_temperature;BME280_humidity;BME280_pressure;Samples;Min_cycle;Max_cycle;Signal;HPM_P1;HPM_P2
2021/08/20 00:02:23;;;;;;;1.75;1.50;;;;;;;19.13;85.34;98676.16;4935205;28;102662;-61
2021/08/20 00:04:51;;;;;;;2.10;1.90;;;;;;;19.14;84.84;98673.34;4938731;28;103632;-60
2021/08/20 00:07:21;;;;;;;2.17;1.98;;;;;;;19.12;85.03;98678.00;4935594;28;103414;-60
2021/08/20 00:09:51;;;;;;;1.55;1.45;;;;;;;19.09;84.91;98672.97;4940762;28;102757;-60
2021/08/20 00:12:20;;;;;;;1.83;1.67;;;;;;;19.06;84.93;98673.31;4938545;28;102543;-61
2021/08/20 00:14:48;;;;;;;1.75;1.65;;;;;;;19.01;85.58;98671.13;4937906;28;104092;-60
2021/08/20 00:17:16;;;;;;;2.15;1.95;;;;;;;18.91;85.91;98673.13;4937490;28;103247;-60
2021/08/20 00:19:44;;;;;;;2.08;1.88;;;;;;;18.91;85.86;98677.63;4940248;28;102633;-61
2021/08/20 00:22:12;;;;;;;2.28;2.05;;;;;;;18.88;86.18;98667.25;4936600;28;104577;-60
2021/08/20 00:24:40;;;;;;;1.80;1.70;;;;;;;18.85;86.42;98664.91;4937624;28;104131;-61
2021/08/20 00:27:09;;;;;;;2.53;1.95;;;;;;;18.81;86.33;98664.38;4938706;28;103150;-64
2021/08/20 00:29:37;;;;;;;2.70;2.00;;;;;;;18.84;86.18;98660.53;4939635;28;103235;-64
2021/08/20 00:32:06;;;;;;;1.77;1.67;;;;;;;18.80;86.21;98665.41;4940517;28;103927;-63
2021/08/20 00:34:34;;;;;;;2.53;1.85;;;;;;;18.61;87.80;98654.97;4938877;28;103296;-63
2021/08/20 00:37:02;;;;;;;2.67;2.03;;;;;;;18.56;87.56;98659.13;4939343;28;103217;-63
2021/08/20 00:39:30;;;;;;;2.00;1.88;;;;;;;18.43;87.60;98655.03;4921939;28;102827;-64
2021/08/20 00:41:58;;;;;;;2.53;2.00;;;;;;;18.43;88.55;98651.53;4924066;28;102787;-60
2021/08/20 00:44:27;;;;;;;1.92;1.73;;;;;;;18.57;88.01;98653.63;4938203;28;103389;-64
2021/08/20 00:46:55;;;;;;;2.33;2.13;;;;;;;18.60;87.13;98647.94;4925154;28;103222;-60
2021/08/20 00:49:23;;;;;;;1.85;1.75;;;;;;;18.64;86.70;98651.97;4941568;28;102546;-60
2021/08/20 00:51:53;;;;;;;1.50;1.40;;;;;;;18.73;86.04;98651.00;4942151;28;103883;-60
2021/08/20 00:54:21;;;;;;;1.50;1.40;;;;;;;18.80;85.45;98656.53;4941125;28;104221;-60
2021/08/20 00:56:49;;;;;;;2.28;1.48;;;;;;;18.80;86.14;98653.84;4939416;28;103258;-60
2021/08/20 00:59:17;;;;;;;1.63;1.45;;;;;;;18.84;85.67;98650.69;4928455;28;102765;-64
2021/08/20 01:01:47;;;;;;;1.95;1.60;;;;;;;18.87;85.97;98653.03;4930180;28;102788;-61
2021/08/20 01:04:15;;;;;;;2.38;1.55;;;;;;;18.89;86.38;98650.22;4939596;28;103482;-64
2021/08/20 01:06:44;;;;;;;3.40;2.72;;;;;;;18.56;88.60;98649.25;4925066;28;103263;-61
2021/08/20 01:09:13;;;;;;;2.63;2.17;;;;;;;18.42;89.94;98652.50;4925897;28;102669;-65
2021/08/20 01:11:41;;;;;;;2.50;1.95;;;;;;;18.42;89.76;98657.88;4938984;28;103880;-59
2021/08/20 01:14:14;;;;;;;2.53;2.00;;;;;;;18.57;89.03;98658.13;4924703;28;103953;-59
2021/08/20 01:16:43;;;;;;;2.00;1.80;;;;;;;18.50;88.43;98644.56;4938787;28;103446;-63
2021/08/20 01:19:12;;;;;;;2.85;2.50;;;;;;;18.22;89.19;98649.25;4942768;28;102784;-63
2021/08/20 01:21:41;;;;;;;2.38;2.00;;;;;;;18.29;89.15;98649.47;4923256;28;102731;-63
2021/08/20 01:24:10;;;;;;;2.05;1.80;;;;;;;18.43;88.15;98654.22;4923884;28;103260;-60
2021/08/20 01:26:40;;;;;;;1.92;1.52;;;;;;;18.55;87.89;98649.44;4924450;28;103160;-62
2021/08/20 01:29:08;;;;;;;2.13;1.40;;;;;;;18.60;87.52;98661.31;4920977;28;104474;-61
2021/08/20 01:31:36;;;;;;;1.55;1.40;;;;;;;18.57;87.84;98647.44;4940775;28;103580;-61
2021/08/20 01:34:05;;;;;;;1.40;1.30;;;;;;;18.56;88.80;98657.28;4939509;28;103276;-61
2021/08/20 01:36:33;;;;;;;1.70;1.42;;;;;;;18.61;88.24;98657.63;4922644;28;103205;-64
2021/08/20 01:39:01;;;;;;;1.80;1.58;;;;;;;18.66;88.21;98647.31;4938096;28;102603;-63
2021/08/20 01:41:31;;;;;;;2.85;2.00;;;;;;;18.65;88.59;98653.66;4924106;28;103781;-60
2021/08/20 01:44:01;;;;;;;1.90;1.70;;;;;;;18.65;88.90;98650.97;4928597;28;103235;-61
2021/08/20 01:46:31;;;;;;;2.47;2.00;;;;;;;18.67;88.75;98643.59;4938425;28;103322;-61
2021/08/20 01:49:03;;;;;;;2.33;2.13;;;;;;;18.58;89.78;98633.91;4923104;28;102821;-61
2021/08/20 01:51:33;;;;;;;2.65;2.00;;;;;;;18.53;90.28;98649.59;4922889;28;102726;-61
2021/08/20 01:54:03;;;;;;;2.22;1.70;;;;;;;18.60;89.39;98655.97;4923231;28;104314;-60
2021/08/20 01:56:34;;;;;;;1.95;1.80;;;;;;;18.64;89.05;98645.78;4923434;28;104247;-60
2021/08/20 01:59:10;;;;;;;3.17;2.45;;;;;;;18.27;90.65;98640.78;4938572;28;102798;-64
2021/08/20 02:01:38;;;;;;;2.15;2.03;;;;;;;18.43;90.13;98648.84;4918702;28;102877;-64
2021/08/20 02:04:07;;;;;;;1.77;1.60;;;;;;;18.51;89.01;98640.88;4920756;28;103244;-60
2021/08/20 02:06:36;;;;;;;1.95;1.65;;;;;;;18.50;89.16;98640.03;4936434;28;103311;-61
2021/08/20 02:09:05;;;;;;;1.70;1.60;;;;;;;18.53;88.92;98649.59;4920988;28;102651;-60
2021/08/20 02:11:37;;;;;;;1.48;1.38;;;;;;;18.56;88.17;98654.59;4923996;28;102754;-61
2021/08/20 02:14:07;;;;;;;1.70;1.60;;;;;;;18.62;88.01;98650.44;4921624;28;103293;-60
2021/08/20 02:16:39;;;;;;;1.40;1.30;;;;;;;18.64;87.01;98645.78;4920552;28;103467;-61
2021/08/20 02:19:14;;;;;;;2.03;1.80;;;;;;;18.65;87.10;98652.81;4920574;28;103017;-64
2021/08/20 02:21:43;;;;;;;1.63;1.42;;;;;;;18.66;87.14;98652.66;4920793;28;102785;-64
2021/08/20 02:24:21;;;;;;;1.80;1.40;;;;;;;18.68;86.90;98647.97;4923138;28;103274;-64
2021/08/20 02:26:50;;;;;;;1.73;1.63;;;;;;;18.66;87.11;98655.34;4925470;28;103247;-64
2021/08/20 02:29:18;;;;;;;1.88;1.67;;;;;;;18.62;87.90;98656.63;4924368;28;102676;-63
2021/08/20 02:31:49;;;;;;;2.50;2.20;;;;;;;18.58;87.92;98655.31;4926324;28;102747;-64
2021/08/20 02:34:17;;;;;;;3.30;2.30;;;;;;;18.25;88.49;98650.75;4940233;28;104298;-65
2021/08/20 02:36:45;;;;;;;2.72;1.90;;;;;;;18.30;89.12;98654.63;4939860;28;103233;-64
2021/08/20 02:39:15;;;;;;;1.77;1.67;;;;;;;18.36;88.20;98658.50;4938642;28;102620;-64
2021/08/20 02:41:45;;;;;;;2.05;1.65;;;;;;;18.36;87.46;98658.50;4920784;28;103190;-64
2021/08/20 02:44:15;;;;;;;1.88;1.60;;;;;;;18.18;88.06;98657.78;4934190;28;103910;-63
2021/08/20 02:46:44;;;;;;;2.00;1.80;;;;;;;18.17;87.86;98650.72;4921829;28;104080;-63
2021/08/20 02:49:14;;;;;;;1.98;1.77;;;;;;;18.27;87.66;98654.16;4940668;28;102716;-63
2021/08/20 02:51:44;;;;;;;1.90;1.52;;;;;;;18.30;87.46;98651.97;4920554;28;103227;-63
2021/08/20 02:54:13;;;;;;;1.88;1.42;;;;;;;18.35;86.79;98656.84;4924590;28;105986;-63
2021/08/20 02:56:41;;;;;;;1.30;1.20;;;;;;;18.40;86.75;98655.38;4940289;28;103157;-63
2021/08/20 02:59:11;;;;;;;1.60;1.50;;;;;;;18.41;86.59;98651.69;4923857;28;102606;-62
2021/08/20 03:01:39;;;;;;;1.40;1.30;;;;;;;18.43;86.50;98651.53;4920991;28;104320;-60
2021/08/20 03:04:16;;;;;;;1.17;1.05;;;;;;;18.45;86.50;98649.53;4921669;28;104003;-60
2021/08/20 03:06:45;;;;;;;1.77;1.42;;;;;;;18.44;86.75;98650.53;4921544;28;103541;-60
2021/08/20 03:09:28;;;;;;;1.38;1.27;;;;;;;18.42;87.22;98652.50;4919051;28;102843;-63
2021/08/20 03:11:57;;;;;;;2.00;1.75;;;;;;;18.36;87.97;98654.00;4941174;28;104151;-63
2021/08/20 03:14:25;;;;;;;1.73;1.63;;;;;;;18.34;88.56;98650.66;4923026;28;103391;-64
2021/08/20 03:16:55;;;;;;;1.77;1.40;;;;;;;18.39;88.26;98648.34;4940370;28;103291;-60
2021/08/20 03:19:25;;;;;;;1.80;1.70;;;;;;;18.41;88.47;98651.69;4937870;28;102682;-59
2021/08/20 03:21:55;;;;;;;1.63;1.52;;;;;;;18.42;88.52;98647.16;4937246;28;102811;-60
2021/08/20 03:24:26;;;;;;;2.05;1.70;;;;;;;18.43;88.69;98644.34;4910475;28;104179;-60
2021/08/20 03:26:54;;;;;;;1.88;1.50;;;;;;;18.44;88.71;98650.53;4922252;28;103549;-60
2021/08/20 03:29:24;;;;;;;1.73;1.55;;;;;;;18.42;89.51;98649.84;4921484;28;102681;-63
2021/08/20 03:32:24;;;;;;;3.47;2.85;;;;;;;18.18;92.02;98649.75;4934532;28;102689;-65
2021/08/20 03:34:55;;;;;;;3.22;2.53;;;;;;;18.17;92.41;98654.25;4920071;28;103450;-61
2021/08/20 03:37:25;;;;;;;2.67;2.08;;;;;;;18.24;91.68;98649.13;4919994;28;103294;-60
2021/08/20 03:39:54;;;;;;;2.40;2.13;;;;;;;18.30;90.81;98646.63;4920540;28;102637;-64
2021/08/20 03:42:25;;;;;;;1.60;1.50;;;;;;;18.36;90.59;98655.84;4920314;28;103056;-64
2021/08/20 03:45:24;;;;;;;2.20;2.00;;;;;;;18.30;91.06;98649.28;4917801;28;105641;-64
2021/08/20 03:47:54;;;;;;;2.58;2.33;;;;;;;18.34;90.70;98655.16;4921215;28;103618;-64
2021/08/20 03:50:26;;;;;;;2.60;2.40;;;;;;;18.25;91.16;98645.41;4917824;28;103053;-70
2021/08/20 03:52:54;;;;;;;6.35;2.75;;;;;;;18.11;92.40;98654.03;4920878;28;102716;-62
2021/08/20 03:55:23;;;;;;;2.20;2.00;;;;;;;18.14;92.59;98654.56;4937530;28;103312;-62
2021/08/20 03:58:20;;;;;;;3.58;2.67;;;;;;;18.11;91.66;98662.06;4894722;28;103267;-62
2021/08/20 04:00:52;;;;;;;2.70;2.50;;;;;;;18.09;91.79;98656.03;4916964;28;102669;-62
2021/08/20 04:03:25;;;;;;;3.70;1.90;;;;;;;18.12;92.49;98655.72;4935844;28;103052;-62
2021/08/20 04:05:57;;;;;;;2.25;2.05;;;;;;;18.21;91.62;98668.16;4937751;28;103287;-62
2021/08/20 04:08:27;;;;;;;2.63;2.42;;;;;;;18.23;91.43;98658.13;4938847;28;103310;-60
2021/08/20 04:11:01;;;;;;;2.55;2.20;;;;;;;18.23;91.51;98658.13;4936586;28;102684;-60
2021/08/20 04:13:49;;;;;;;1.95;1.77;;;;;;;18.20;91.94;98658.44;4921185;28;103934;-62
2021/08/20 04:16:18;;;;;;;2.55;2.20;;;;;;;18.25;91.68;98658.78;4939033;28;103261;-60
2021/08/20 04:18:46;;;;;;;3.13;2.38;;;;;;;18.17;92.29;98658.75;4933464;28;103447;-60
2021/08/20 04:21:16;;;;;;;3.00;2.70;;;;;;;18.14;92.93;98661.75;4926173;28;102776;-60
2021/08/20 04:23:46;;;;;;;3.60;2.28;;;;;;;17.81;94.97;98664.25;4923367;28;103160;-60
2021/08/20 04:26:16;;;;;;;3.03;2.45;;;;;;;17.96;93.97;98673.34;4918910;28;103159;-61
2021/08/20 04:29:01;;;;;;;2.38;2.17;;;;;;;18.01;93.96;98667.53;4933120;28;103319;-62
2021/08/20 04:31:51;;;;;;;2.15;1.95;;;;;;;18.11;93.55;98673.59;4915088;28;104310;-64
2021/08/20 04:34:45;;;;;;;1.67;1.58;;;;;;;18.18;93.22;98671.13;4934355;28;102726;-64
2021/08/20 04:37:33;;;;;;;1.67;1.58;;;;;;;18.23;92.74;98668.81;4936699;28;103578;-61
2021/08/20 04:40:21;;;;;;;1.73;1.63;;;;;;;18.28;92.43;98666.50;4934866;28;103402;-61
2021/08/20 04:43:08;;;;;;;3.03;1.90;;;;;;;18.27;92.41;98671.00;4937542;28;102708;-60
2021/08/20 04:45:48;;;;;;;2.03;1.83;;;;;;;18.22;93.00;98678.66;4916679;28;103661;-61
2021/08/20 04:48:42;;;;;;;5.05;3.03;;;;;;;18.04;94.28;98679.75;4937271;28;104017;-61
2021/08/20 04:51:29;;;;;;;3.95;3.00;;;;;;;18.02;94.42;98689.75;4937649;28;103173;-63
2021/08/20 04:54:25;;;;;;;2.38;1.92;;;;;;;18.06;94.44;98693.78;4933798;28;102798;-61
2021/08/20 04:57:00;;;;;;;2.22;2.03;;;;;;;18.18;93.56;98682.69;4936194;28;104080;-64
2021/08/20 04:59:30;;;;;;;2.28;2.08;;;;;;;18.29;92.99;98689.56;4923511;28;104308;-63
2021/08/20 05:01:58;;;;;;;1.65;1.55;;;;;;;18.35;92.54;98692.47;4929986;28;104064;-63
2021/08/20 05:04:28;;;;;;;1.60;1.50;;;;;;;18.44;92.44;98698.69;4937167;28;102787;-61
2021/08/20 05:06:56;;;;;;;1.63;1.52;;;;;;;18.47;92.00;98693.84;4937250;28;102707;-60
2021/08/20 05:09:26;;;;;;;2.75;1.52;;;;;;;18.50;92.07;98692.69;4936344;28;104143;-61
2021/08/20 05:11:55;;;;;;;4.38;2.70;;;;;;;18.34;92.52;98692.59;4934046;28;103264;-60
2021/08/20 05:14:23;;;;;;;3.45;2.50;;;;;;;17.90;95.19;98700.72;4938512;28;103009;-65
2021/08/20 05:16:52;;;;;;;4.78;2.70;;;;;;;17.98;95.69;98707.09;4937909;28;102710;-61
2021/08/20 05:19:20;;;;;;;2.60;2.35;;;;;;;18.12;95.29;98703.84;4937177;28;104110;-61
2021/08/20 05:21:48;;;;;;;4.15;2.92;;;;;;;18.16;95.49;98705.22;4937662;28;103337;-63
2021/08/20 05:24:16;;;;;;;3.22;2.92;;;;;;;18.15;95.30;98708.88;4936762;28;102793;-63
2021/08/20 05:26:46;;;;;;;2.95;2.65;;;;;;;18.14;96.23;98712.53;4938497;28;103554;-63
2021/08/20 05:29:14;;;;;;;4.15;3.25;;;;;;;18.16;95.49;98711.38;4933304;28;103318;-64
2021/08/20 05:31:42;;;;;;;3.67;2.67;;;;;;;18.28;94.71;98719.97;4936984;28;103289;-64
2021/08/20 05:34:11;;;;;;;3.58;2.60;;;;;;;18.17;95.26;98717.56;4940744;28;102609;-63
2021/08/20 05:36:39;;;;;;;3.50;2.95;;;;;;;18.26;94.92;98721.97;4941246;28;102766;-63
2021/08/20 05:39:07;;;;;;;2.40;2.10;;;;;;;18.51;93.67;98721.13;4939516;28;102683;-61
2021/08/20 05:41:35;;;;;;;1.73;1.63;;;;;;;18.74;93.57;98727.59;4940069;28;103222;-63
2021/08/20 05:44:05;;;;;;;2.03;1.92;;;;;;;18.89;92.95;98734.00;4942211;28;102643;-63
2021/08/20 05:46:33;;;;;;;2.30;2.10;;;;;;;18.98;91.24;98741.06;4939015;28;102751;-64
2021/08/20 05:49:05;;;;;;;2.00;1.63;;;;;;;19.08;91.50;98735.56;4941284;28;103025;-64
2021/08/20 05:51:34;;;;;;;2.10;1.80;;;;;;;19.18;90.94;98736.25;4937937;28;104088;-63
2021/08/20 05:54:02;;;;;;;2.25;1.60;;;;;;;19.26;90.30;98738.94;4936782;28;103054;-64
2021/08/20 05:56:30;;;;;;;2.17;1.70;;;;;;;19.26;90.03;98738.09;4937349;28;102707;-62
2021/08/20 05:58:58;;;;;;;1.50;1.40;;;;;;;19.34;90.08;98740.81;4942991;28;103909;-62
2021/08/20 06:01:29;;;;;;;2.92;2.03;;;;;;;19.42;89.01;98736.34;4935527;28;103229;-64
2021/08/20 06:03:58;;;;;;;1.63;1.52;;;;;;;19.43;88.40;98742.53;4921815;28;102769;-64
2021/08/20 06:06:38;;;;;;;2.92;1.90;;;;;;;19.40;87.74;98746.38;4941306;28;102677;-64
2021/08/20 06:09:08;;;;;;;2.55;2.20;;;;;;;19.46;86.95;98744.88;4920726;28;103334;-62
2021/08/20 06:11:37;;;;;;;2.47;1.80;;;;;;;19.53;85.46;98746.75;4923624;28;103235;-61
2021/08/20 06:14:05;;;;;;;2.42;2.00;;;;;;;19.63;84.44;98751.94;4940970;28;103096;-61
2021/08/20 06:16:35;;;;;;;2.20;2.00;;;;;;;19.71;84.28;98743.88;4922754;28;102780;-62
2021/08/20 06:19:04;;;;;;;3.30;2.33;;;;;;;19.78;83.84;98752.94;4938745;28;103708;-61
2021/08/20 06:21:32;;;;;;;3.08;2.63;;;;;;;19.86;83.28;98758.31;4938045;28;103266;-64
2021/08/20 06:24:01;;;;;;;9.15;2.85;;;;;;;19.64;82.37;98756.28;4942142;28;102870;-64
2021/08/20 06:26:29;;;;;;;3.17;2.28;;;;;;;19.84;84.08;98760.31;4938552;28;102805;-64
2021/08/20 06:28:57;;;;;;;5.97;2.22;;;;;;;20.01;82.57;98762.00;4939764;28;103247;-62
2021/08/20 06:31:26;;;;;;;3.13;2.13;;;;;;;20.17;82.49;98753.94;4920347;28;103990;-68
2021/08/20 06:33:58;;;;;;;4.95;2.15;;;;;;;20.22;81.33;98756.09;4939967;28;102816;-63
2021/08/20 06:36:26;;;;;;;2.42;1.98;;;;;;;20.33;81.14;98760.28;4942157;28;102884;-60
2021/08/20 06:38:54;;;;;;;2.22;1.90;;;;;;;20.40;79.77;98767.50;4941457;28;104357;-59
2021/08/20 06:41:22;;;;;;;6.00;2.53;;;;;;;20.41;79.41;98760.25;4939700;28;103225;-60
2021/08/20 06:43:52;;;;;;;2.45;2.20;;;;;;;20.30;81.52;98760.63;4922018;28;102776;-63
2021/08/20 06:46:20;;;;;;;4.25;3.00;;;;;;;20.13;79.00;98766.00;4936947;28;103260;-63
2021/08/20 06:48:49;;;;;;;3.85;3.25;;;;;;;19.98;79.77;98769.53;4938016;28;103342;-63
2021/08/20 06:51:22;;;;;;;3.67;2.65;;;;;;;20.21;79.96;98757.94;4935893;28;103242;-65
2021/08/20 06:53:50;;;;;;;4.68;2.97;;;;;;;20.64;79.27;98767.41;4939451;28;102863;-65
2021/08/20 06:56:19;;;;;;;4.57;3.10;;;;;;;20.73;78.74;98763.72;4939816;28;102971;-64
2021/08/20 06:58:47;;;;;;;4.70;3.50;;;;;;;20.76;77.19;98765.22;4938315;28;104617;-61
2021/08/20 07:01:19;;;;;;;2.92;2.63;;;;;;;20.93;77.26;98756.06;4939100;28;103086;-60
2021/08/20 07:03:48;;;;;;;4.38;3.55;;;;;;;20.81;76.72;98754.78;4933167;28;102637;-60
2021/08/20 07:06:23;;;;;;;4.43;4.00;;;;;;;20.93;75.72;98756.06;4941029;28;103938;-65
2021/08/20 07:08:52;;;;;;;5.03;3.63;;;;;;;20.93;76.53;98758.75;4920077;28;103247;-60
2021/08/20 07:11:21;;;;;;;4.95;3.70;;;;;;;21.23;74.77;98757.97;4922436;28;103992;-65
2021/08/20 07:13:49;;;;;;;3.70;3.40;;;;;;;21.22;76.01;98758.97;4939073;28;102900;-64
2021/08/20 07:16:18;;;;;;;4.10;2.63;;;;;;;21.33;77.25;98755.06;4939093;28;103047;-61
2021/08/20 07:18:46;;;;;;;3.45;3.05;;;;;;;21.67;75.00;98754.66;4920334;28;103219;-60
2021/08/20 07:21:14;;;;;;;6.28;4.68;;;;;;;21.18;76.32;98760.34;4940825;28;103294;-61
2021/08/20 07:23:44;;;;;;;7.68;5.55;;;;;;;20.60;78.58;98762.59;4938387;28;102693;-61
2021/08/20 07:26:14;;;;;;;6.40;4.28;;;;;;;21.46;75.79;98766.06;4942104;28;103581;-64
2021/08/20 07:28:43;;;;;;;5.97;5.38;;;;;;;21.18;76.20;98767.56;4938696;28;104108;-64
2021/08/20 07:31:11;;;;;;;5.85;5.20;;;;;;;21.19;76.84;98763.88;4939299;28;103373;-64
2021/08/20 07:33:40;;;;;;;6.57;5.30;;;;;;;21.27;77.49;98761.97;4934762;28;102608;-64
2021/08/20 07:36:08;;;;;;;7.85;6.32;;;;;;;21.31;75.04;98763.28;4941646;28;102739;-64
2021/08/20 07:38:36;;;;;;;5.68;5.07;;;;;;;21.65;75.30;98767.44;4939417;28;103373;-63
2021/08/20 07:41:06;;;;;;;6.55;5.95;;;;;;;21.16;76.16;98765.06;4940478;28;104247;-64
2021/08/20 07:43:34;;;;;;;8.30;5.97;;;;;;;21.57;75.09;98767.50;4941322;28;102641;-64
2021/08/20 07:46:02;;;;;;;7.38;6.00;;;;;;;21.68;74.84;98769.75;4939793;28;102936;-61
2021/08/20 07:48:31;;;;;;;4.35;3.95;;;;;;;22.00;74.30;98763.31;4934170;28;103558;-61
2021/08/20 07:50:59;;;;;;;8.77;6.07;;;;;;;22.54;71.33;98760.25;4939519;28;103236;-60
2021/08/20 07:53:28;;;;;;;7.28;5.85;;;;;;;22.27;72.01;98760.88;4938102;28;102625;-64
2021/08/20 07:55:56;;;;;;;5.88;5.38;;;;;;;22.79;71.38;98749.25;4940184;28;102715;-60
2021/08/20 07:58:26;;;;;;;6.70;5.70;;;;;;;22.35;71.71;98758.09;4938345;28;104175;-64
2021/08/20 08:00:54;;;;;;;8.65;5.75;;;;;;;22.13;72.72;98764.38;4938363;28;103109;-64
2021/08/20 08:03:23;;;;;;;8.60;5.32;;;;;;;22.87;70.91;98755.38;4940254;28;102689;-64
2021/08/20 08:05:51;;;;;;;7.22;5.80;;;;;;;21.97;72.18;98767.22;4938467;28;102759;-65
2021/08/20 08:08:20;;;;;;;6.93;5.65;;;;;;;22.70;71.03;98766.50;4937806;28;103483;-65
2021/08/20 08:10:48;;;;;;;7.75;5.90;;;;;;;22.67;71.90;98772.25;4940365;28;103195;-60
2021/08/20 08:13:16;;;;;;;5.47;4.30;;;;;;;23.96;69.08;98765.09;4939726;28;102818;-60
2021/08/20 08:15:45;;;;;;;5.93;4.60;;;;;;;23.97;67.25;98772.97;4939586;28;102723;-61
2021/08/20 08:18:14;;;;;;;6.60;4.72;;;;;;;24.37;65.69;98768.78;4922857;28;104449;-65
2021/08/20 08:20:42;;;;;;;8.77;5.68;;;;;;;24.59;64.05;98778.47;4936385;28;103645;-66
2021/08/20 08:23:10;;;;;;;5.78;5.20;;;;;;;24.05;66.26;98775.56;4931771;28;102597;-60
2021/08/20 08:25:38;;;;;;;6.43;5.57;;;;;;;23.54;67.88;98780.25;4939590;28;103221;-61
2021/08/20 08:28:07;;;;;;;7.10;6.22;;;;;;;22.89;70.05;98780.25;4937481;28;103999;-61
2021/08/20 08:30:37;;;;;;;8.00;7.20;;;;;;;22.71;69.35;98781.66;4937838;28;103232;-61
2021/08/20 08:33:11;;;;;;;6.43;5.82;;;;;;;23.06;69.82;98783.56;4937842;28;102550;-61
2021/08/20 08:36:00;;;;;;;7.82;6.32;;;;;;;24.43;65.36;98784.19;4938839;28;104229;-61
2021/08/20 08:38:28;;;;;;;4.82;4.43;;;;;;;25.51;63.53;98780.88;4936717;28;103299;-60
2021/08/20 08:40:57;;;;;;;5.03;4.63;;;;;;;26.12;60.58;98781.56;4937647;28;103216;-61
2021/08/20 08:43:25;;;;;;;6.40;5.90;;;;;;;24.71;63.82;98782.31;4936687;28;102571;-65
2021/08/20 08:45:54;;;;;;;6.78;5.97;;;;;;;25.16;62.13;98788.19;4934448;28;103828;-66
2021/08/20 08:48:24;;;;;;;9.68;6.93;;;;;;;24.28;63.77;98786.13;4935388;28;103439;-66
2021/08/20 08:50:53;;;;;;;6.97;6.38;;;;;;;23.72;67.66;98781.69;4939111;28;103226;-61
2021/08/20 08:53:22;;;;;;;5.88;5.38;;;;;;;24.83;63.63;98785.31;4938226;28;103139;-61
2021/08/20 08:55:58;;;;;;;6.07;5.57;;;;;;;24.72;63.13;98773.19;4938943;28;102964;-66
2021/08/20 08:58:27;;;;;;;7.07;6.45;;;;;;;22.94;68.30;98775.13;4938494;28;103261;-66
2021/08/20 09:00:55;;;;;;;5.82;5.35;;;;;;;23.54;66.47;98779.41;4936879;28;103426;-67
2021/08/20 09:03:27;;;;;;;5.18;4.78;;;;;;;23.76;66.02;98781.09;4937006;28;102802;-61
2021/08/20 09:05:58;;;;;;;6.45;5.85;;;;;;;24.14;64.68;98779.00;4939840;28;102752;-61
2021/08/20 09:08:28;;;;;;;6.30;5.68;;;;;;;24.21;64.68;98785.25;4938909;28;103267;-61
2021/08/20 09:10:57;;;;;;;4.20;3.75;;;;;;;24.33;65.30;98782.88;4942148;28;103281;-61
2021/08/20 09:13:30;;;;;;;5.25;4.70;;;;;;;24.21;64.51;98786.09;4938292;28;103261;-61
2021/08/20 09:16:10;;;;;;;6.20;4.97;;;;;;;24.11;64.12;98785.59;4942660;28;102711;-66
2021/08/20 09:18:41;;;;;;;6.07;5.28;;;;;;;23.92;64.13;98786.22;4940908;28;104124;-59
2021/08/20 09:21:15;;;;;;;4.22;3.83;;;;;;;23.99;63.75;98786.28;4942372;28;103368;-60
2021/08/20 09:23:44;;;;;;;6.97;4.93;;;;;;;24.15;62.50;98784.19;4938374;28;102650;-66
2021/08/20 09:26:12;;;;;;;5.25;4.28;;;;;;;24.37;62.13;98782.28;4940573;28;105097;-60
2021/08/20 09:28:41;;;;;;;4.82;4.10;;;;;;;25.65;59.19;98783.41;4940607;28;103229;-60
2021/08/20 09:31:12;;;;;;;5.63;3.92;;;;;;;24.73;61.57;98780.22;4938954;28;104034;-60
2021/08/20 09:33:52;;;;;;;5.32;4.75;;;;;;;24.17;59.71;98781.28;4925439;28;102764;-66
2021/08/20 09:36:22;;;;;;;6.57;4.43;;;;;;;23.48;65.44;98772.06;4938065;28;103108;-61
2021/08/20 09:38:53;;;;;;;5.25;4.75;;;;;;;23.47;64.06;98782.03;4939144;28;103413;-61
2021/08/20 09:41:26;;;;;;;6.28;4.65;;;;;;;23.52;63.91;98776.06;4943406;28;103011;-65
2021/08/20 09:43:56;;;;;;;4.85;4.15;;;;;;;23.98;61.37;98779.22;4925435;28;102772;-66
2021/08/20 09:46:24;;;;;;;4.25;3.92;;;;;;;24.67;62.13;98775.63;4942035;28;102704;-65
2021/08/20 09:48:55;;;;;;;4.38;3.92;;;;;;;24.37;63.25;98779.56;4939617;28;103346;-65
2021/08/20 09:51:40;;;;;;;4.40;4.00;;;;;;;25.41;59.53;98775.78;4942777;28;103187;-64
2021/08/20 09:54:10;;;;;;;6.00;4.15;;;;;;;25.71;57.73;98771.72;4920117;28;103071;-65
2021/08/20 09:56:58;;;;;;;5.80;4.22;;;;;;;26.03;56.11;98775.53;4939680;28;102702;-64
2021/08/20 09:59:30;;;;;;;4.35;3.95;;;;;;;25.30;57.38;98770.97;4942159;28;103256;-60
2021/08/20 10:02:00;;;;;;;3.88;3.58;;;;;;;25.08;56.13;98777.53;4937139;28;103267;-60
2021/08/20 10:04:33;;;;;;;4.00;3.60;;;;;;;25.37;57.33;98771.84;4938545;28;102913;-60
2021/08/20 10:07:03;;;;;;;4.07;3.70;;;;;;;24.69;58.55;98772.72;4922076;28;103693;-60
2021/08/20 10:09:32;;;;;;;7.60;4.25;;;;;;;24.20;59.83;98773.63;4942185;28;103338;-67
2021/08/20 10:12:01;;;;;;;4.80;4.40;;;;;;;23.17;62.72;98772.31;4940611;28;103312;-61
2021/08/20 10:14:31;;;;;;;3.53;2.97;;;;;;;23.44;62.49;98774.31;4941437;28;102643;-61
2021/08/20 10:16:59;;;;;;;5.47;4.38;;;;;;;23.14;63.26;98770.00;4937348;28;103598;-61
2021/08/20 10:19:28;;;;;;;4.38;3.97;;;;;;;24.19;61.19;98771.97;4943455;28;103411;-67
2021/08/20 10:21:59;;;;;;;4.60;4.07;;;;;;;24.07;60.20;98762.72;4938221;28;103359;-61
2021/08/20 10:24:28;;;;;;;5.28;4.78;;;;;;;24.93;58.55;98768.72;4941141;28;102737;-65
2021/08/20 10:27:00;;;;;;;5.10;3.78;;;;;;;24.64;58.06;98765.25;4939726;28;103014;-65
2021/08/20 10:29:31;;;;;;;4.38;3.67;;;;;;;24.04;57.57;98773.03;4939235;28;104214;-66
2021/08/20 10:32:02;;;;;;;5.20;3.00;;;;;;;25.28;52.82;98767.66;4939856;28;103268;-66
2021/08/20 10:34:36;;;;;;;2.80;2.58;;;;;;;26.18;54.93;98761.84;4938055;28;102632;-59
2021/08/20 10:37:08;;;;;;;3.63;3.03;;;;;;;25.40;53.70;98765.19;4936622;28;103727;-65
2021/08/20 10:39:39;;;;;;;3.83;3.05;;;;;;;25.44;52.54;98767.28;4936265;28;103526;-65
2021/08/20 10:42:09;;;;;;;3.53;3.22;;;;;;;25.69;53.04;98763.00;4939319;28;103256;-66
2021/08/20 10:44:43;;;;;;;3.20;2.90;;;;;;;26.35;54.31;98760.38;4939228;28;102676;-64
2021/08/20 10:47:22;;;;;;;5.45;3.50;;;;;;;26.09;51.90;98754.91;4939267;28;103639;-65
2021/08/20 10:49:52;;;;;;;3.20;2.80;;;;;;;25.71;51.88;98758.22;4937923;28;103344;-66
2021/08/20 10:52:31;;;;;;;3.78;3.38;;;;;;;25.98;49.22;98763.66;4938291;28;103365;-65
2021/08/20 10:55:30;;;;;;;2.90;2.65;;;;;;;25.84;49.47;98754.69;4939027;28;102695;-65
2021/08/20 10:58:10;;;;;;;3.45;2.78;;;;;;;26.78;51.05;98753.44;4936003;28;102701;-65
2021/08/20 11:00:58;;;;;;;4.45;3.58;;;;;;;25.77;51.74;98757.38;4939789;28;103026;-66
2021/08/20 11:03:45;;;;;;;3.63;3.03;;;;;;;26.84;51.11;98749.03;4939917;28;103240;-66
2021/08/20 11:06:47;;;;;;;5.90;3.03;;;;;;;25.17;50.59;98758.25;4939707;28;102647;-65
2021/08/20 11:09:42;;;;;;;3.70;3.30;;;;;;;24.44;53.71;98758.88;4938272;28;102739;-61
2021/08/20 11:12:36;;;;;;;3.05;2.75;;;;;;;25.34;52.73;98756.88;4937906;28;104080;-65
2021/08/20 11:15:42;;;;;;;2.80;2.60;;;;;;;26.17;51.79;98757.44;4939545;28;102988;-61
2021/08/20 11:18:10;;;;;;;3.10;2.90;;;;;;;26.82;50.23;98746.56;4915870;28;103073;-65
2021/08/20 11:20:41;;;;;;;3.67;3.20;;;;;;;25.59;48.75;98754.47;4942292;28;103929;-65
2021/08/20 11:23:19;;;;;;;7.55;3.15;;;;;;;26.72;48.40;98754.28;4939785;28;103957;-64
2021/08/20 11:25:50;;;;;;;4.75;3.10;;;;;;;26.92;49.70;98746.13;4938153;28;103377;-65
2021/08/20 11:28:20;;;;;;;2.85;2.65;;;;;;;26.05;51.00;98751.78;4920820;28;102676;-67
2021/08/20 11:30:56;;;;;;;2.35;2.20;;;;;;;26.69;49.65;98743.00;4938427;28;103088;-61
2021/08/20 11:33:25;;;;;;;2.53;2.33;;;;;;;26.99;49.65;98741.50;4921244;28;103213;-61
2021/08/20 11:35:56;;;;;;;3.05;2.85;;;;;;;27.04;47.59;98750.63;4940529;28;103044;-66
2021/08/20 11:38:31;;;;;;;4.63;2.92;;;;;;;26.26;51.07;98739.97;4940503;28;103006;-66
2021/08/20 11:41:09;;;;;;;3.47;3.10;;;;;;;26.73;49.79;98750.50;4938736;28;102616;-66
2021/08/20 11:43:54;;;;;;;3.55;2.90;;;;;;;26.54;49.60;98743.25;4938029;28;103036;-66
2021/08/20 11:46:24;;;;;;;4.93;2.40;;;;;;;27.37;48.60;98741.53;4920385;28;103167;-61